Time;durP1;ratioP1;P1;durP2;ratioP2;P2;SDS_P1;SDS_P2;PMS_P1;PMS_P2;Temp;Humidity;BMP_temperature;BMP_pressure;BME280_temperature;BME280_humidity;BME280_pressure;Samples;Min_cycle;Max_cycle;Signal;HPM_P1;HPM_P2
2024/04/03 00:01:22;;;;;;;21.65;6.18;;;;;;;;;;5033181;28;20038;-69
2024/04/03 00:03:48;;;;;;;26.73;7.55;;;;;;;;;;5014867;28;20500;-69
2024/04/03 00:06:13;;;;;;;21.83;7.05;;;;;;;;;;5033154;28;20030;-69
2024/04/03 00:08:39;;;;;;;15.98;6.93;;;;;;;;;;5014836;28;20079;-69
2024/04/03 00:11:04;;;;;;;24.10;7.35;;;;;;;;;;5033204;28;20029;-69
2024/04/03 00:13:29;;;;;;;12.23;5.88;;;;;;;;;;5032421;28;20049;-69
2024/04/03 00:15:56;;;;;;;20.90;5.88;;;;;;;;;;5032999;28;20504;-69
2024/04/03 00:18:22;;;;;;;17.45;5.43;;;;;;;;;;5014821;28;20136;-68
2024/04/03 00:20:47;;;;;;;16.83;5.45;;;;;;;;;;5032904;28;20522;-69
2024/04/03 00:23:12;;;;;;;17.45;5.80;;;;;;;;;;5032089;28;20096;-69
2024/04/03 00:25:38;;;;;;;15.68;5.95;;;;;;;;;;5015026;28;20045;-69
2024/04/03 00:28:04;;;;;;;16.85;7.15;;;;;;;;;;5032164;28;20041;-68
2024/04/03 00:30:29;;;;;;;11.85;5.72;;;;;;;;;;5032784;28;20503;-68
2024/04/03 00:32:54;;;;;;;17.73;5.57;;;;;;;;;;5014456;28;20118;-69
2024/04/03 00:35:19;;;;;;;21.08;5.90;;;;;;;;;;5032712;28;20033;-68
2024/04/03 00:37:45;;;;;;;17.90;5.70;;;;;;;;;;5014645;28;20049;-69
2024/04/03 00:40:11;;;;;;;9.75;4.75;;;;;;;;;;5032610;28;20037;-69
2024/04/03 00:42:36;;;;;;;14.52;5.03;;;;;;;;;;5031989;28;20134;-68
2024/04/03 00:45:01;;;;;;;10.65;5.07;;;;;;;;;;5032566;28;20037;-69
2024/04/03 00:47:26;;;;;;;15.02;4.05;;;;;;;;;;5032024;28;20064;-69
2024/04/03 00:49:53;;;;;;;9.60;3.45;;;;;;;;;;5032597;28;20041;-67
2024/04/03 00:52:18;;;;;;;11.75;4.18;;;;;;;;;;5014140;28;20050;-67
2024/04/03 00:54:45;;;;;;;11.18;3.95;;;;;;;;;;5032453;28;20064;-67
2024/04/03 00:57:12;;;;;;;4.63;3.05;;;;;;;;;;5031841;28;20530;-67
2024/04/03 00:59:38;;;;;;;8.13;3.28;;;;;;;;;;5014662;28;20049;-68
2024/04/03 01:02:03;;;;;;;10.65;2.92;;;;;;;;;;5031529;28;20116;-67
2024/04/03 01:04:28;;;;;;;9.20;2.88;;;;;;;;;;5031871;28;20037;-67
2024/04/03 01:06:54;;;;;;;8.27;2.72;;;;;;;;;;5031598;28;20049;-68
2024/04/03 01:09:19;;;;;;;6.10;2.90;;;;;;;;;;5014488;28;20052;-68
2024/04/03 01:11:46;;;;;;;5.15;2.30;;;;;;;;;;5031635;28;20033;-67
2024/04/03 01:14:13;;;;;;;9.35;3.00;;;;;;;;;;5030953;28;20029;-67
2024/04/03 01:16:42;;;;;;;11.50;3.30;;;;;;;;;;5014508;28;20377;-67
2024/04/03 01:19:07;;;;;;;13.07;3.53;;;;;;;;;;5031758;28;20053;-67
2024/04/03 01:21:32;;;;;;;2.95;1.83;;;;;;;;;;5032104;28;20033;-68
2024/04/03 01:23:58;;;;;;;11.73;2.83;;;;;;;;;;5031592;28;20053;-66
2024/04/03 01:26:25;;;;;;;13.70;3.08;;;;;;;;;;5032186;28;20401;-67
2024/04/03 01:28:50;;;;;;;18.38;3.65;;;;;;;;;;5031518;28;20501;-68
2024/04/03 01:31:16;;;;;;;7.38;2.60;;;;;;;;;;5032170;28;20026;-67
2024/04/03 01:33:41;;;;;;;7.80;2.90;;;;;;;;;;5031514;28;20042;-67
2024/04/03 01:36:06;;;;;;;5.18;2.17;;;;;;;;;;5014333;28;20044;-67
2024/04/03 01:38:32;;;;;;;8.90;2.72;;;;;;;;;;5031549;28;20081;-67
2024/04/03 01:40:57;;;;;;;18.35;2.92;;;;;;;;;;5031902;28;20477;-67
2024/04/03 01:43:22;;;;;;;11.38;2.83;;;;;;;;;;5031350;28;20053;-67
2024/04/03 01:45:56;;;;;;;6.82;2.97;;;;;;;;;;5031943;28;20037;-66
2024/04/03 01:48:21;;;;;;;17.20;3.10;;;;;;;;;;5013657;28;20050;-67
2024/04/03 01:50:47;;;;;;;9.52;2.35;;;;;;;;;;5031838;28;20041;-67
2024/04/03 01:53:12;;;;;;;9.00;2.55;;;;;;;;;;5031299;28;20049;-67
2024/04/03 01:55:38;;;;;;;13.02;3.25;;;;;;;;;;5014152;28;20338;-66
2024/04/03 01:58:03;;;;;;;11.10;2.78;;;;;;;;;;5031183;28;20049;-67
2024/04/03 02:00:28;;;;;;;9.23;2.92;;;;;;;;;;5031924;28;20048;-68
2024/04/03 02:02:54;;;;;;;7.05;2.20;;;;;;;;;;5031010;28;20468;-68
2024/04/03 02:05:19;;;;;;;9.10;2.65;;;;;;;;;;5031841;28;20030;-68
2024/04/03 02:07:44;;;;;;;4.07;2.47;;;;;;;;;;5031225;28;20053;-68
2024/04/03 02:10:09;;;;;;;9.55;2.42;;;;;;;;;;5014038;28;20132;-68
2024/04/03 02:12:35;;;;;;;4.40;2.38;;;;;;;;;;5029923;28;20103;-68
2024/04/03 02:15:00;;;;;;;2.92;1.80;;;;;;;;;;5013862;28;20037;-68
2024/04/03 02:17:25;;;;;;;7.65;2.88;;;;;;;;;;5032797;28;20045;-68
2024/04/03 02:19:51;;;;;;;14.65;2.97;;;;;;;;;;5035158;28;20045;-68
2024/04/03 02:22:16;;;;;;;8.80;2.83;;;;;;;;;;5034428;28;20540;-68
2024/04/03 02:24:41;;;;;;;11.05;4.10;;;;;;;;;;5035131;28;20037;-68
2024/04/03 02:27:07;;;;;;;9.88;4.07;;;;;;;;;;5034438;28;20075;-68
2024/04/03 02:29:32;;;;;;;13.32;3.17;;;;;;;;;;5035038;28;20087;-68
2024/04/03 02:31:57;;;;;;;11.70;4.47;;;;;;;;;;5034298;28;20100;-68
2024/04/03 02:34:23;;;;;;;9.80;4.22;;;;;;;;;;5034944;28;20061;-68
2024/04/03 02:36:48;;;;;;;12.55;5.40;;;;;;;;;;5034236;28;20055;-68
2024/04/03 02:39:13;;;;;;;17.80;6.38;;;;;;;;;;5034841;28;20037;-68
2024/04/03 02:41:38;;;;;;;12.93;6.53;;;;;;;;;;5033490;28;20125;-68
2024/04/03 02:44:04;;;;;;;7.88;5.18;;;;;;;;;;5034127;28;20467;-68
2024/04/03 02:46:29;;;;;;;17.88;5.82;;;;;;;;;;5034688;28;20038;-68
2024/04/03 02:48:54;;;;;;;12.00;5.32;;;;;;;;;;5034191;28;20060;-68
2024/04/03 02:51:20;;;;;;;8.90;5.68;;;;;;;;;;5017135;28;20083;-68
2024/04/03 02:53:45;;;;;;;14.35;6.32;;;;;;;;;;5034023;28;20068;-68
2024/04/03 02:56:11;;;;;;;14.38;8.20;;;;;;;;;;5016630;28;20065;-68
2024/04/03 02:58:36;;;;;;;14.68;7.10;;;;;;;;;;5033950;28;20049;-68
2024/04/03 03:01:04;;;;;;;16.73;7.68;;;;;;;;;;5034346;28;20033;-68
2024/04/03 03:03:30;;;;;;;19.45;8.80;;;;;;;;;;5033616;28;20049;-68
2024/04/03 03:05:57;;;;;;;15.57;8.40;;;;;;;;;;5016558;28;20313;-68
2024/04/03 03:08:22;;;;;;;18.20;9.65;;;;;;;;;;5033699;28;20500;-68
2024/04/03 03:10:47;;;;;;;22.45;9.23;;;;;;;;;;5034268;28;20040;-69
2024/04/03 03:13:13;;;;;;;13.40;8.43;;;;;;;;;;5015897;28;20069;-69
2024/04/03 03:15:38;;;;;;;16.88;9.30;;;;;;;;;;5034160;28;20522;-69
2024/04/03 03:18:04;;;;;;;16.58;8.65;;;;;;;;;;5033449;28;20054;-69
2024/04/03 03:20:29;;;;;;;15.93;9.30;;;;;;;;;;5034070;28;20036;-69
2024/04/03 03:22:54;;;;;;;18.13;11.32;;;;;;;;;;5015605;28;20412;-69
2024/04/03 03:25:19;;;;;;;16.50;10.57;;;;;;;;;;5033994;28;20048;-69
2024/04/03 03:27:45;;;;;;;23.90;11.73;;;;;;;;;;5033091;28;20049;-69
2024/04/03 03:30:10;;;;;;;16.83;10.43;;;;;;;;;;5033812;28;20029;-69
2024/04/03 03:32:36;;;;;;;20.77;10.18;;;;;;;;;;5033312;28;20044;-69
2024/04/03 03:35:01;;;;;;;17.38;9.73;;;;;;;;;;5015900;28;20034;-69
2024/04/03 03:37:26;;;;;;;20.55;10.98;;;;;;;;;;5015519;28;20123;-68
2024/04/03 03:39:51;;;;;;;21.67;11.45;;;;;;;;;;5033652;28;20041;-68
2024/04/03 03:42:18;;;;;;;21.80;12.98;;;;;;;;;;5015255;28;20081;-69
2024/04/03 03:44:43;;;;;;;21.15;12.60;;;;;;;;;;5033625;28;20095;-69
2024/04/03 03:47:08;;;;;;;27.27;13.48;;;;;;;;;;5015339;28;20049;-69
2024/04/03 03:52:36;;;;;;;26.50;12.32;;;;;;;;;;5015163;28;20135;-68
2024/04/03 03:55:01;;;;;;;25.48;13.07;;;;;;;;;;5015767;28;20485;-69
2024/04/03 03:57:30;;;;;;;28.67;13.85;;;;;;;;;;5032902;28;20053;-69
2024/04/03 03:59:56;;;;;;;28.23;14.82;;;;;;;;;;5033451;28;20117;-69
2024/04/03 04:02:22;;;;;;;30.50;14.02;;;;;;;;;;4998530;28;20131;-69
2024/04/03 04:04:49;;;;;;;34.35;16.17;;;;;;;;;;5033035;28;20080;-69
2024/04/03 04:07:14;;;;;;;30.20;14.00;;;;;;;;;;5032575;28;20041;-69
2024/04/03 04:09:40;;;;;;;26.30;13.27;;;;;;;;;;5033199;28;20031;-69
2024/04/03 04:12:06;;;;;;;30.20;15.80;;;;;;;;;;5032558;28;20504;-69
2024/04/03 04:14:31;;;;;;;33.90;16.83;;;;;;;;;;5032974;28;20083;-69
2024/04/03 04:16:57;;;;;;;35.67;14.55;;;;;;;;;;5032401;28;20028;-69
2024/04/03 04:19:22;;;;;;;30.80;13.93;;;;;;;;;;5033163;28;20033;-67
2024/04/03 04:21:47;;;;;;;33.97;15.57;;;;;;;;;;5032056;28;20491;-67
2024/04/03 04:24:14;;;;;;;33.60;14.70;;;;;;;;;;5032923;28;20025;-67
2024/04/03 04:26:40;;;;;;;28.30;15.15;;;;;;;;;;5015201;28;20033;-67
2024/04/03 04:29:05;;;;;;;31.63;14.10;;;;;;;;;;5032103;28;20109;-67
2024/04/03 04:31:31;;;;;;;29.65;15.30;;;;;;;;;;5032782;28;20100;-67
2024/04/03 04:33:56;;;;;;;34.08;15.05;;;;;;;;;;5032194;28;20594;-66
2024/04/03 04:36:23;;;;;;;30.08;12.65;;;;;;;;;;5032678;28;20057;-66
2024/04/03 04:38:48;;;;;;;25.98;13.00;;;;;;;;;;5030568;28;20103;-66
2024/04/03 04:41:13;;;;;;;25.40;12.25;;;;;;;;;;5032175;28;20029;-66
2024/04/03 04:43:39;;;;;;;28.85;13.32;;;;;;;;;;5032072;28;20412;-66
2024/04/03 04:46:04;;;;;;;26.02;10.55;;;;;;;;;;5014998;28;20053;-65
2024/04/03 04:48:33;;;;;;;25.35;13.45;;;;;;;;;;5014397;28;20045;-67
2024/04/03 04:51:00;;;;;;;22.33;12.05;;;;;;;;;;5032516;28;20094;-66
2024/04/03 04:53:26;;;;;;;21.52;11.35;;;;;;;;;;5031939;28;20529;-66
2024/04/03 04:56:10;;;;;;;24.75;11.80;;;;;;;;;;5032366;28;20037;-67
2024/04/03 04:58:35;;;;;;;25.70;10.98;;;;;;;;;;5031805;28;20049;-67
2024/04/03 05:01:05;;;;;;;24.20;11.05;;;;;;;;;;4998279;28;20044;-66
2024/04/03 05:03:31;;;;;;;24.13;12.48;;;;;;;;;;5031657;28;20060;-66
2024/04/03 05:05:58;;;;;;;18.02;9.90;;;;;;;;;;5014514;28;20042;-67
2024/04/03 05:08:23;;;;;;;24.70;10.73;;;;;;;;;;5030461;28;20037;-66
2024/04/03 05:10:56;;;;;;;17.92;10.85;;;;;;;;;;5032363;28;20063;-72
2024/04/03 05:13:22;;;;;;;22.40;10.05;;;;;;;;;;5014083;28;20524;-71
2024/04/03 05:15:47;;;;;;;21.40;10.30;;;;;;;;;;5032115;28;20041;-71
2024/04/03 05:18:13;;;;;;;25.20;11.10;;;;;;;;;;5030293;28;20087;-71
2024/04/03 05:20:39;;;;;;;25.48;11.75;;;;;;;;;;5032179;28;20054;-71
2024/04/03 05:23:05;;;;;;;19.65;11.00;;;;;;;;;;5013501;28;20471;-72
2024/04/03 05:25:30;;;;;;;30.65;12.02;;;;;;;;;;5014391;28;20034;-72
2024/04/03 05:27:55;;;;;;;26.95;12.23;;;;;;;;;;5031507;28;20053;-72
2024/04/03 05:30:21;;;;;;;24.77;11.38;;;;;;;;;;5032077;28;20075;-67
2024/04/03 05:32:46;;;;;;;35.90;12.57;;;;;;;;;;5031407;28;20496;-67
2024/04/03 05:35:11;;;;;;;23.42;10.57;;;;;;;;;;5014312;28;20033;-67
2024/04/03 05:37:37;;;;;;;23.27;10.98;;;;;;;;;;5031447;28;20160;-67
2024/04/03 05:40:05;;;;;;;28.58;10.55;;;;;;;;;;5014365;28;20487;-69
2024/04/03 05:42:31;;;;;;;25.90;12.50;;;;;;;;;;5031345;28;20037;-68
2024/04/03 05:44:57;;;;;;;25.63;11.45;;;;;;;;;;5031902;28;20555;-68
2024/04/03 05:47:22;;;;;;;22.00;10.88;;;;;;;;;;5031473;28;20073;-67
2024/04/03 05:49:52;;;;;;;21.33;10.68;;;;;;;;;;5031849;28;20034;-67
2024/04/03 05:52:17;;;;;;;22.25;11.60;;;;;;;;;;5034458;28;20132;-68
2024/04/03 05:54:43;;;;;;;22.45;10.57;;;;;;;;;;5035754;28;20386;-67
2024/04/03 05:57:08;;;;;;;32.03;12.38;;;;;;;;;;5035064;28;20049;-68
2024/04/03 05:59:33;;;;;;;22.40;11.02;;;;;;;;;;5035564;28;20033;-67
2024/04/03 06:01:59;;;;;;;25.27;12.00;;;;;;;;;;5034722;28;20053;-67
2024/04/03 06:04:24;;;;;;;25.48;12.57;;;;;;;;;;5017850;28;20045;-67
2024/04/03 06:06:50;;;;;;;26.33;12.43;;;;;;;;;;5034717;28;20033;-67
2024/04/03 06:09:15;;;;;;;24.67;12.27;;;;;;;;;;5035495;28;20564;-68
2024/04/03 06:11:41;;;;;;;25.15;13.25;;;;;;;;;;5017669;28;20057;-69
2024/04/03 06:14:06;;;;;;;32.00;14.63;;;;;;;;;;5034713;28;20080;-69
2024/04/03 06:16:31;;;;;;;21.80;10.93;;;;;;;;;;5035154;28;20041;-69
2024/04/03 06:19:00;;;;;;;27.65;12.90;;;;;;;;;;5034619;28;20611;-69
2024/04/03 06:21:26;;;;;;;20.25;11.65;;;;;;;;;;5035331;28;20120;-70
2024/04/03 06:23:52;;;;;;;18.45;10.63;;;;;;;;;;5034540;28;20052;-70
2024/04/03 06:26:18;;;;;;;18.58;10.18;;;;;;;;;;5017320;28;20124;-70
2024/04/03 06:28:45;;;;;;;13.40;7.65;;;;;;;;;;5034503;28;20069;-70
2024/04/03 06:31:11;;;;;;;15.75;9.07;;;;;;;;;;5017263;28;20037;-70
2024/04/03 06:33:36;;;;;;;15.88;8.68;;;;;;;;;;5034416;28;20053;-70
2024/04/03 06:36:01;;;;;;;14.63;7.93;;;;;;;;;;5034843;28;20033;-70
2024/04/03 06:38:27;;;;;;;12.93;7.63;;;;;;;;;;5016533;28;20389;-70
2024/04/03 06:40:52;;;;;;;13.77;6.65;;;;;;;;;;5034927;28;20511;-67
2024/04/03 06:43:18;;;;;;;10.25;5.65;;;;;;;;;;5034170;28;20050;-67
2024/04/03 06:45:54;;;;;;;8.23;5.28;;;;;;;;;;5034300;28;20053;-67
2024/04/03 06:48:21;;;;;;;11.65;4.93;;;;;;;;;;4998476;28;20053;-66
2024/04/03 06:50:57;;;;;;;7.90;5.05;;;;;;;;;;5000759;28;20045;-66
2024/04/03 06:53:23;;;;;;;6.72;4.75;;;;;;;;;;4997285;28;20046;-67
2024/04/03 06:55:59;;;;;;;7.57;5.05;;;;;;;;;;5015533;28;20511;-66
2024/04/03 06:58:26;;;;;;;11.05;5.38;;;;;;;;;;5016310;28;20121;-67
2024/04/03 07:00:51;;;;;;;15.23;6.43;;;;;;;;;;5016754;28;20037;-67
2024/04/03 07:03:17;;;;;;;14.07;4.95;;;;;;;;;;5011495;28;20532;-67
2024/04/03 07:05:44;;;;;;;5.10;4.28;;;;;;;;;;5012722;28;20042;-67
2024/04/03 07:08:11;;;;;;;5.97;5.20;;;;;;;;;;5013685;28;20117;-67
2024/04/03 07:10:37;;;;;;;7.15;4.80;;;;;;;;;;4996902;28;20042;-67
2024/04/03 07:13:03;;;;;;;8.88;5.32;;;;;;;;;;5011991;28;20493;-68
2024/04/03 07:15:29;;;;;;;4.93;3.95;;;;;;;;;;5014350;28;20105;-64
2024/04/03 07:17:55;;;;;;;6.22;4.03;;;;;;;;;;5013920;28;20054;-65
2024/04/03 07:20:25;;;;;;;6.97;4.30;;;;;;;;;;5013152;28;20117;-65
2024/04/03 07:22:52;;;;;;;4.18;3.47;;;;;;;;;;5013682;28;20046;-67
2024/04/03 07:25:17;;;;;;;11.38;4.25;;;;;;;;;;5013836;28;20041;-67
2024/04/03 07:27:45;;;;;;;6.22;4.13;;;;;;;;;;5001204;28;20043;-67
2024/04/03 07:30:10;;;;;;;3.88;3.15;;;;;;;;;;4993345;28;20492;-69
2024/04/03 07:32:35;;;;;;;7.60;3.58;;;;;;;;;;4992763;28;20050;-69
2024/04/03 07:35:01;;;;;;;4.82;3.17;;;;;;;;;;5004211;28;20049;-69
2024/04/03 07:37:26;;;;;;;4.93;3.63;;;;;;;;;;5012223;28;20049;-69
2024/04/03 07:39:51;;;;;;;5.35;2.92;;;;;;;;;;4996328;28;20048;-69
2024/04/03 07:42:17;;;;;;;5.82;3.28;;;;;;;;;;5013387;28;20128;-69
2024/04/03 07:44:42;;;;;;;8.85;3.60;;;;;;;;;;5013062;28;20044;-69
2024/04/03 07:47:08;;;;;;;6.03;3.28;;;;;;;;;;5013291;28;20054;-69
2024/04/03 07:49:33;;;;;;;7.97;3.45;;;;;;;;;;5013872;28;20034;-69
2024/04/03 07:51:58;;;;;;;4.55;4.13;;;;;;;;;;5013279;28;20481;-72
2024/04/03 07:54:23;;;;;;;3.85;2.95;;;;;;;;;;5013197;28;20038;-71
2024/04/03 07:56:49;;;;;;;7.63;3.17;;;;;;;;;;5010986;28;20076;-72
2024/04/03 07:59:14;;;;;;;8.52;2.97;;;;;;;;;;5012315;28;20065;-72
2024/04/03 08:01:39;;;;;;;4.78;3.40;;;;;;;;;;5013555;28;20045;-72
2024/04/03 08:04:05;;;;;;;3.83;2.40;;;;;;;;;;5032726;28;20054;-72
2024/04/03 08:06:30;;;;;;;6.15;2.65;;;;;;;;;;5031680;28;20037;-72
2024/04/03 08:08:56;;;;;;;9.23;3.60;;;;;;;;;;5032585;28;20501;-72
2024/04/03 08:11:21;;;;;;;5.35;2.17;;;;;;;;;;5015578;28;20094;-72
2024/04/03 08:13:47;;;;;;;3.35;1.83;;;;;;;;;;5031925;28;20049;-72
2024/04/03 08:16:12;;;;;;;5.57;2.10;;;;;;;;;;5033064;28;20041;-72
2024/04/03 08:18:38;;;;;;;4.78;1.75;;;;;;;;;;5014871;28;20057;-72
2024/04/03 08:21:06;;;;;;;4.57;2.35;;;;;;;;;;5032952;28;20488;-72
2024/04/03 08:23:33;;;;;;;4.35;1.92;;;;;;;;;;4997849;28;20048;-72
2024/04/03 08:26:10;;;;;;;3.08;2.15;;;;;;;;;;5032892;28;20477;-72
2024/04/03 08:28:42;;;;;;;3.50;1.60;;;;;;;;;;5032278;28;20057;-72
2024/04/03 08:31:11;;;;;;;4.43;1.60;;;;;;;;;;5032808;28;20048;-72
2024/04/03 08:33:37;;;;;;;2.65;1.67;;;;;;;;;;5032003;28;20429;-71
2024/04/03 08:36:02;;;;;;;5.80;1.90;;;;;;;;;;5014942;28;20041;-72
2024/04/03 08:38:28;;;;;;;9.40;1.63;;;;;;;;;;4998058;28;20053;-68
2024/04/03 08:40:55;;;;;;;5.05;1.63;;;;;;;;;;5032757;28;20405;-68
2024/04/03 08:43:22;;;;;;;3.40;1.38;;;;;;;;;;5032082;28;20041;-69
